sensor_id;sensor_type;location;lat;lon;timestamp;P1;durP1;ratioP1;P2;durP2;ratioP2
32633;SDS011;19043;51.012;5.648;2023-11-21T00:01:46;20.70;;;11.83;;
32633;SDS011;19043;51.012;5.648;2023-11-21T00:04:11;22.10;;;12.45;;
32633;SDS011;19043;51.012;5.648;2023-11-21T00:06:36;19.63;;;12.70;;
32633;SDS011;19043;51.012;5.648;2023-11-21T00:09:01;18.38;;;11.90;;
32633;SDS011;19043;51.012;5.648;2023-11-21T00:11:27;19.75;;;11.68;;
32633;SDS011;19043;51.012;5.648;2023-11-21T00:13:52;19.73;;;11.23;;
32633;SDS011;19043;51.012;5.648;2023-11-21T00:16:18;21.27;;;12.00;;
32633;SDS011;19043;51.012;5.648;2023-11-21T00:18:43;19.15;;;10.93;;
32633;SDS011;19043;51.012;5.648;2023-11-21T00:21:08;19.87;;;11.77;;
32633;SDS011;19043;51.012;5.648;2023-11-21T00:23:34;22.60;;;11.40;;
32633;SDS011;19043;51.012;5.648;2023-11-21T00:25:59;19.17;;;11.25;;
32633;SDS011;19043;51.012;5.648;2023-11-21T00:28:25;17.85;;;11.27;;
32633;SDS011;19043;51.012;5.648;2023-11-21T00:30:51;19.58;;;10.43;;
32633;SDS011;19043;51.012;5.648;2023-11-21T00:33:16;19.50;;;10.47;;
32633;SDS011;19043;51.012;5.648;2023-11-21T00:35:41;19.60;;;10.52;;
32633;SDS011;19043;51.012;5.648;2023-11-21T00:38:06;19.80;;;10.48;;
32633;SDS011;19043;51.012;5.648;2023-11-21T00:40:33;20.20;;;11.40;;
32633;SDS011;19043;51.012;5.648;2023-11-21T00:42:58;20.65;;;10.80;;
32633;SDS011;19043;51.012;5.648;2023-11-21T00:45:23;20.95;;;11.43;;
32633;SDS011;19043;51.012;5.648;2023-11-21T00:47:49;20.67;;;12.02;;
32633;SDS011;19043;51.012;5.648;2023-11-21T00:50:14;23.20;;;11.40;;
32633;SDS011;19043;51.012;5.648;2023-11-21T00:52:40;22.52;;;12.07;;
32633;SDS011;19043;51.012;5.648;2023-11-21T00:55:06;24.92;;;11.63;;
32633;SDS011;19043;51.012;5.648;2023-11-21T00:57:32;27.45;;;12.00;;
32633;SDS011;19043;51.012;5.648;2023-11-21T00:59:57;22.35;;;11.82;;
32633;SDS011;19043;51.012;5.648;2023-11-21T01:02:23;20.95;;;11.85;;
32633;SDS011;19043;51.012;5.648;2023-11-21T01:04:48;22.20;;;11.77;;
32633;SDS011;19043;51.012;5.648;2023-11-21T01:07:13;21.83;;;11.47;;
32633;SDS011;19043;51.012;5.648;2023-11-21T01:09:38;23.33;;;11.55;;
32633;SDS011;19043;51.012;5.648;2023-11-21T01:12:04;27.20;;;13.40;;
32633;SDS011;19043;51.012;5.648;2023-11-21T01:14:29;27.90;;;13.07;;
32633;SDS011;19043;51.012;5.648;2023-11-21T01:16:54;27.80;;;13.37;;
32633;SDS011;19043;51.012;5.648;2023-11-21T01:19:19;36.27;;;14.70;;
32633;SDS011;19043;51.012;5.648;2023-11-21T01:21:45;28.15;;;12.98;;
32633;SDS011;19043;51.012;5.648;2023-11-21T01:24:10;36.78;;;15.48;;
32633;SDS011;19043;51.012;5.648;2023-11-21T01:26:35;27.38;;;12.80;;
32633;SDS011;19043;51.012;5.648;2023-11-21T01:29:00;28.67;;;13.07;;
32633;SDS011;19043;51.012;5.648;2023-11-21T01:31:26;33.40;;;12.60;;
32633;SDS011;19043;51.012;5.648;2023-11-21T01:33:54;30.95;;;12.13;;
32633;SDS011;19043;51.012;5.648;2023-11-21T01:36:20;31.45;;;13.27;;
32633;SDS011;19043;51.012;5.648;2023-11-21T01:38:46;29.70;;;13.10;;
32633;SDS011;19043;51.012;5.648;2023-11-21T01:41:13;33.15;;;12.95;;
32633;SDS011;19043;51.012;5.648;2023-11-21T01:43:38;34.28;;;13.43;;
32633;SDS011;19043;51.012;5.648;2023-11-21T01:46:03;35.92;;;12.70;;
32633;SDS011;19043;51.012;5.648;2023-11-21T01:48:31;37.47;;;12.75;;
32633;SDS011;19043;51.012;5.648;2023-11-21T01:50:56;33.83;;;13.02;;
32633;SDS011;19043;51.012;5.648;2023-11-21T01:53:23;33.90;;;13.23;;
32633;SDS011;19043;51.012;5.648;2023-11-21T01:55:48;29.00;;;12.00;;
32633;SDS011;19043;51.012;5.648;2023-11-21T01:58:14;30.65;;;11.65;;
32633;SDS011;19043;51.012;5.648;2023-11-21T02:00:39;34.58;;;14.40;;
32633;SDS011;19043;51.012;5.648;2023-11-21T02:03:04;32.85;;;12.57;;
32633;SDS011;19043;51.012;5.648;2023-11-21T02:05:29;36.45;;;13.07;;
32633;SDS011;19043;51.012;5.648;2023-11-21T02:07:55;33.50;;;13.38;;
32633;SDS011;19043;51.012;5.648;2023-11-21T02:10:21;27.42;;;12.00;;
32633;SDS011;19043;51.012;5.648;2023-11-21T02:12:51;30.45;;;13.43;;
32633;SDS011;19043;51.012;5.648;2023-11-21T02:15:16;27.90;;;11.68;;
32633;SDS011;19043;51.012;5.648;2023-11-21T02:17:45;33.75;;;13.75;;
32633;SDS011;19043;51.012;5.648;2023-11-21T02:20:12;36.42;;;12.48;;
32633;SDS011;19043;51.012;5.648;2023-11-21T02:22:40;30.23;;;12.43;;
32633;SDS011;19043;51.012;5.648;2023-11-21T02:25:07;32.30;;;13.18;;
32633;SDS011;19043;51.012;5.648;2023-11-21T02:27:32;33.08;;;12.85;;
32633;SDS011;19043;51.012;5.648;2023-11-21T02:29:58;31.60;;;13.38;;
32633;SDS011;19043;51.012;5.648;2023-11-21T02:32:23;30.98;;;13.10;;
32633;SDS011;19043;51.012;5.648;2023-11-21T02:34:51;36.67;;;13.15;;
32633;SDS011;19043;51.012;5.648;2023-11-21T02:37:16;38.25;;;13.32;;
32633;SDS011;19043;51.012;5.648;2023-11-21T02:39:41;35.50;;;14.53;;
32633;SDS011;19043;51.012;5.648;2023-11-21T02:42:06;33.70;;;15.27;;
32633;SDS011;19043;51.012;5.648;2023-11-21T02:44:32;39.45;;;14.40;;
32633;SDS011;19043;51.012;5.648;2023-11-21T02:46:57;46.00;;;15.77;;
32633;SDS011;19043;51.012;5.648;2023-11-21T02:49:23;37.15;;;14.70;;
32633;SDS011;19043;51.012;5.648;2023-11-21T02:51:48;42.65;;;16.60;;
32633;SDS011;19043;51.012;5.648;2023-11-21T02:54:13;43.57;;;15.30;;
32633;SDS011;19043;51.012;5.648;2023-11-21T02:56:38;44.00;;;15.65;;
32633;SDS011;19043;51.012;5.648;2023-11-21T02:59:05;35.92;;;14.77;;
32633;SDS011;19043;51.012;5.648;2023-11-21T03:01:30;47.28;;;16.95;;
32633;SDS011;19043;51.012;5.648;2023-11-21T03:03:56;39.60;;;17.23;;
32633;SDS011;19043;51.012;5.648;2023-11-21T03:06:21;42.22;;;15.98;;
32633;SDS011;19043;51.012;5.648;2023-11-21T03:08:47;47.38;;;16.35;;
32633;SDS011;19043;51.012;5.648;2023-11-21T03:11:12;38.80;;;16.30;;
32633;SDS011;19043;51.012;5.648;2023-11-21T03:13:41;39.65;;;15.95;;
32633;SDS011;19043;51.012;5.648;2023-11-21T03:16:08;40.72;;;16.05;;
32633;SDS011;19043;51.012;5.648;2023-11-21T03:18:33;47.85;;;17.52;;
32633;SDS011;19043;51.012;5.648;2023-11-21T03:20:59;43.88;;;15.90;;
32633;SDS011;19043;51.012;5.648;2023-11-21T03:23:24;43.40;;;17.13;;
32633;SDS011;19043;51.012;5.648;2023-11-21T03:25:49;40.88;;;15.65;;
32633;SDS011;19043;51.012;5.648;2023-11-21T03:28:14;46.97;;;16.60;;
32633;SDS011;19043;51.012;5.648;2023-11-21T03:30:40;45.93;;;17.03;;
32633;SDS011;19043;51.012;5.648;2023-11-21T03:33:05;49.10;;;16.85;;
32633;SDS011;19043;51.012;5.648;2023-11-21T03:35:30;42.85;;;16.55;;
32633;SDS011;19043;51.012;5.648;2023-11-21T03:37:55;44.95;;;17.77;;
32633;SDS011;19043;51.012;5.648;2023-11-21T03:40:21;48.33;;;17.35;;
32633;SDS011;19043;51.012;5.648;2023-11-21T03:42:46;43.03;;;16.17;;
32633;SDS011;19043;51.012;5.648;2023-11-21T03:45:12;41.60;;;15.23;;
32633;SDS011;19043;51.012;5.648;2023-11-21T03:47:37;62.97;;;17.67;;
32633;SDS011;19043;51.012;5.648;2023-11-21T03:50:02;48.15;;;16.20;;
32633;SDS011;19043;51.012;5.648;2023-11-21T03:52:28;57.67;;;18.02;;
32633;SDS011;19043;51.012;5.648;2023-11-21T03:54:53;46.80;;;16.98;;
32633;SDS011;19043;51.012;5.648;2023-11-21T03:57:20;57.63;;;17.05;;
32633;SDS011;19043;51.012;5.648;2023-11-21T03:59:46;47.90;;;17.27;;
32633;SDS011;19043;51.012;5.648;2023-11-21T04:02:11;56.30;;;17.00;;
32633;SDS011;19043;51.012;5.648;2023-11-21T04:04:36;57.17;;;18.20;;
32633;SDS011;19043;51.012;5.648;2023-11-21T04:07:01;56.10;;;18.33;;
32633;SDS011;19043;51.012;5.648;2023-11-21T04:09:28;49.30;;;16.30;;
32633;SDS011;19043;51.012;5.648;2023-11-21T04:11:53;59.50;;;18.57;;
32633;SDS011;19043;51.012;5.648;2023-11-21T04:14:18;38.57;;;15.77;;
32633;SDS011;19043;51.012;5.648;2023-11-21T04:16:43;49.70;;;17.40;;
32633;SDS011;19043;51.012;5.648;2023-11-21T04:19:09;40.97;;;15.48;;
32633;SDS011;19043;51.012;5.648;2023-11-21T04:21:35;45.92;;;16.35;;
32633;SDS011;19043;51.012;5.648;2023-11-21T04:24:01;48.35;;;15.60;;
32633;SDS011;19043;51.012;5.648;2023-11-21T04:26:26;54.22;;;16.48;;
32633;SDS011;19043;51.012;5.648;2023-11-21T04:28:51;36.40;;;13.47;;
32633;SDS011;19043;51.012;5.648;2023-11-21T04:31:16;45.10;;;15.90;;
32633;SDS011;19043;51.012;5.648;2023-11-21T04:33:41;47.13;;;14.63;;
32633;SDS011;19043;51.012;5.648;2023-11-21T04:36:07;46.63;;;15.43;;
32633;SDS011;19043;51.012;5.648;2023-11-21T04:38:32;39.92;;;13.65;;
32633;SDS011;19043;51.012;5.648;2023-11-21T04:40:58;35.90;;;12.85;;
32633;SDS011;19043;51.012;5.648;2023-11-21T04:43:23;38.80;;;12.80;;
32633;SDS011;19043;51.012;5.648;2023-11-21T04:45:48;37.03;;;13.38;;
32633;SDS011;19043;51.012;5.648;2023-11-21T04:48:13;38.67;;;15.30;;
32633;SDS011;19043;51.012;5.648;2023-11-21T04:50:39;34.95;;;13.55;;
32633;SDS011;19043;51.012;5.648;2023-11-21T04:53:04;42.08;;;14.35;;
32633;SDS011;19043;51.012;5.648;2023-11-21T04:55:30;36.53;;;14.13;;
32633;SDS011;19043;51.012;5.648;2023-11-21T04:57:55;45.53;;;14.98;;
32633;SDS011;19043;51.012;5.648;2023-11-21T05:00:20;51.43;;;14.60;;
32633;SDS011;19043;51.012;5.648;2023-11-21T05:02:46;41.25;;;14.15;;
32633;SDS011;19043;51.012;5.648;2023-11-21T05:05:12;43.35;;;13.98;;
32633;SDS011;19043;51.012;5.648;2023-11-21T05:07:37;40.40;;;14.73;;
32633;SDS011;19043;51.012;5.648;2023-11-21T05:10:03;41.03;;;14.90;;
32633;SDS011;19043;51.012;5.648;2023-11-21T05:12:31;36.90;;;12.80;;
32633;SDS011;19043;51.012;5.648;2023-11-21T05:14:58;31.60;;;12.85;;
32633;SDS011;19043;51.012;5.648;2023-11-21T05:17:23;37.87;;;13.60;;
32633;SDS011;19043;51.012;5.648;2023-11-21T05:19:49;40.40;;;12.70;;
32633;SDS011;19043;51.012;5.648;2023-11-21T05:22:14;33.03;;;14.20;;
32633;SDS011;19043;51.012;5.648;2023-11-21T05:24:39;35.55;;;14.27;;
32633;SDS011;19043;51.012;5.648;2023-11-21T05:27:05;39.78;;;14.35;;
32633;SDS011;19043;51.012;5.648;2023-11-21T05:29:30;42.00;;;14.52;;
32633;SDS011;19043;51.012;5.648;2023-11-21T05:31:56;46.38;;;15.18;;
32633;SDS011;19043;51.012;5.648;2023-11-21T05:34:21;42.60;;;15.10;;
32633;SDS011;19043;51.012;5.648;2023-11-21T05:36:48;31.58;;;12.60;;
32633;SDS011;19043;51.012;5.648;2023-11-21T05:39:14;47.35;;;15.25;;
32633;SDS011;19043;51.012;5.648;2023-11-21T05:41:42;38.08;;;14.60;;
32633;SDS011;19043;51.012;5.648;2023-11-21T05:44:07;42.83;;;14.20;;
32633;SDS011;19043;51.012;5.648;2023-11-21T05:46:32;48.80;;;16.43;;
32633;SDS011;19043;51.012;5.648;2023-11-21T05:48:57;34.10;;;13.73;;
32633;SDS011;19043;51.012;5.648;2023-11-21T05:51:22;43.90;;;13.57;;
32633;SDS011;19043;51.012;5.648;2023-11-21T05:53:48;51.95;;;16.27;;
32633;SDS011;19043;51.012;5.648;2023-11-21T05:56:13;47.83;;;15.30;;
32633;SDS011;19043;51.012;5.648;2023-11-21T05:58:39;38.40;;;12.80;;
32633;SDS011;19043;51.012;5.648;2023-11-21T06:01:05;38.58;;;13.40;;
32633;SDS011;19043;51.012;5.648;2023-11-21T06:03:31;36.33;;;11.70;;
32633;SDS011;19043;51.012;5.648;2023-11-21T06:05:56;41.67;;;12.77;;
32633;SDS011;19043;51.012;5.648;2023-11-21T06:08:21;41.40;;;13.13;;
32633;SDS011;19043;51.012;5.648;2023-11-21T06:10:47;40.40;;;13.95;;
32633;SDS011;19043;51.012;5.648;2023-11-21T06:13:14;37.03;;;12.88;;
32633;SDS011;19043;51.012;5.648;2023-11-21T06:15:39;43.45;;;12.75;;
32633;SDS011;19043;51.012;5.648;2023-11-21T06:18:04;46.35;;;13.68;;
32633;SDS011;19043;51.012;5.648;2023-11-21T06:20:34;44.28;;;13.10;;
32633;SDS011;19043;51.012;5.648;2023-11-21T06:23:02;39.25;;;12.93;;
32633;SDS011;19043;51.012;5.648;2023-11-21T06:25:28;41.10;;;13.73;;
32633;SDS011;19043;51.012;5.648;2023-11-21T06:27:54;37.58;;;13.38;;
32633;SDS011;19043;51.012;5.648;2023-11-21T06:30:19;41.17;;;13.43;;
32633;SDS011;19043;51.012;5.648;2023-11-21T06:32:44;39.28;;;13.23;;
32633;SDS011;19043;51.012;5.648;2023-11-21T06:35:10;41.47;;;13.82;;
32633;SDS011;19043;51.012;5.648;2023-11-21T06:37:36;36.72;;;12.90;;
32633;SDS011;19043;51.012;5.648;2023-11-21T06:40:02;38.45;;;11.95;;
32633;SDS011;19043;51.012;5.648;2023-11-21T06:42:29;49.42;;;13.48;;
32633;SDS011;19043;51.012;5.648;2023-11-21T06:44:54;39.97;;;12.55;;
32633;SDS011;19043;51.012;5.648;2023-11-21T06:47:22;46.25;;;13.35;;
32633;SDS011;19043;51.012;5.648;2023-11-21T06:49:48;34.15;;;11.77;;
32633;SDS011;19043;51.012;5.648;2023-11-21T06:52:13;38.03;;;11.87;;
32633;SDS011;19043;51.012;5.648;2023-11-21T06:54:39;47.15;;;13.80;;
32633;SDS011;19043;51.012;5.648;2023-11-21T06:57:04;40.13;;;12.80;;
32633;SDS011;19043;51.012;5.648;2023-11-21T06:59:30;46.20;;;13.47;;
32633;SDS011;19043;51.012;5.648;2023-11-21T07:01:55;33.58;;;12.05;;
32633;SDS011;19043;51.012;5.648;2023-11-21T07:04:20;38.65;;;11.70;;
32633;SDS011;19043;51.012;5.648;2023-11-21T07:06:46;40.35;;;12.77;;
32633;SDS011;19043;51.012;5.648;2023-11-21T07:09:11;42.55;;;12.30;;
32633;SDS011;19043;51.012;5.648;2023-11-21T07:11:37;40.97;;;13.30;;
32633;SDS011;19043;51.012;5.648;2023-11-21T07:14:05;39.85;;;13.27;;
32633;SDS011;19043;51.012;5.648;2023-11-21T07:16:36;38.67;;;12.40;;
32633;SDS011;19043;51.012;5.648;2023-11-21T07:19:04;45.05;;;13.30;;
32633;SDS011;19043;51.012;5.648;2023-11-21T07:21:32;42.40;;;12.40;;
32633;SDS011;19043;51.012;5.648;2023-11-21T07:23:59;53.10;;;13.95;;
32633;SDS011;19043;51.012;5.648;2023-11-21T07:26:26;35.63;;;12.52;;
32633;SDS011;19043;51.012;5.648;2023-11-21T07:28:51;47.00;;;12.57;;
32633;SDS011;19043;51.012;5.648;2023-11-21T07:31:16;44.60;;;12.82;;
32633;SDS011;19043;51.012;5.648;2023-11-21T07:33:41;37.43;;;12.33;;
32633;SDS011;19043;51.012;5.648;2023-11-21T07:36:07;39.08;;;11.43;;
32633;SDS011;19043;51.012;5.648;2023-11-21T07:38:32;49.10;;;13.25;;
32633;SDS011;19043;51.012;5.648;2023-11-21T07:40:58;53.17;;;14.10;;
32633;SDS011;19043;51.012;5.648;2023-11-21T07:43:26;47.05;;;13.50;;
32633;SDS011;19043;51.012;5.648;2023-11-21T07:45:51;41.72;;;11.75;;
32633;SDS011;19043;51.012;5.648;2023-11-21T07:48:17;46.45;;;12.32;;
32633;SDS011;19043;51.012;5.648;2023-11-21T07:50:42;40.53;;;12.05;;
32633;SDS011;19043;51.012;5.648;2023-11-21T07:53:07;36.85;;;11.77;;
32633;SDS011;19043;51.012;5.648;2023-11-21T07:55:32;38.63;;;12.80;;
32633;SDS011;19043;51.012;5.648;2023-11-21T07:57:58;38.35;;;13.77;;
32633;SDS011;19043;51.012;5.648;2023-11-21T08:00:24;41.95;;;13.73;;
32633;SDS011;19043;51.012;5.648;2023-11-21T08:02:49;47.25;;;12.32;;
32633;SDS011;19043;51.012;5.648;2023-11-21T08:05:14;41.90;;;13.13;;
32633;SDS011;19043;51.012;5.648;2023-11-21T08:07:40;45.17;;;13.10;;
32633;SDS011;19043;51.012;5.648;2023-11-21T08:10:05;43.40;;;12.95;;
32633;SDS011;19043;51.012;5.648;2023-11-21T08:12:31;41.88;;;13.90;;
32633;SDS011;19043;51.012;5.648;2023-11-21T08:14:57;36.33;;;13.07;;
32633;SDS011;19043;51.012;5.648;2023-11-21T08:17:22;52.57;;;15.73;;
32633;SDS011;19043;51.012;5.648;2023-11-21T08:19:48;42.80;;;14.35;;
32633;SDS011;19043;51.012;5.648;2023-11-21T08:22:15;51.20;;;13.52;;
32633;SDS011;19043;51.012;5.648;2023-11-21T08:24:41;48.30;;;14.48;;
32633;SDS011;19043;51.012;5.648;2023-11-21T08:27:06;54.28;;;15.05;;
32633;SDS011;19043;51.012;5.648;2023-11-21T08:29:31;34.93;;;13.10;;
32633;SDS011;19043;51.012;5.648;2023-11-21T08:31:57;48.07;;;15.73;;
32633;SDS011;19043;51.012;5.648;2023-11-21T08:34:22;61.03;;;14.47;;
32633;SDS011;19043;51.012;5.648;2023-11-21T08:36:47;43.23;;;14.70;;
32633;SDS011;19043;51.012;5.648;2023-11-21T08:39:12;44.85;;;14.90;;
32633;SDS011;19043;51.012;5.648;2023-11-21T08:41:38;43.55;;;14.40;;
32633;SDS011;19043;51.012;5.648;2023-11-21T08:44:03;47.83;;;15.98;;
32633;SDS011;19043;51.012;5.648;2023-11-21T08:46:32;51.10;;;15.23;;
32633;SDS011;19043;51.012;5.648;2023-11-21T08:48:58;45.88;;;15.20;;
32633;SDS011;19043;51.012;5.648;2023-11-21T08:51:23;47.07;;;13.53;;
32633;SDS011;19043;51.012;5.648;2023-11-21T08:53:50;52.80;;;14.73;;
32633;SDS011;19043;51.012;5.648;2023-11-21T08:56:16;50.80;;;15.60;;
32633;SDS011;19043;51.012;5.648;2023-11-21T08:58:43;48.70;;;16.45;;
32633;SDS011;19043;51.012;5.648;2023-11-21T09:01:08;51.50;;;16.80;;
32633;SDS011;19043;51.012;5.648;2023-11-21T09:03:34;54.03;;;17.00;;
32633;SDS011;19043;51.012;5.648;2023-11-21T09:05:59;45.35;;;16.38;;
32633;SDS011;19043;51.012;5.648;2023-11-21T09:08:25;50.03;;;16.55;;
32633;SDS011;19043;51.012;5.648;2023-11-21T09:10:50;46.20;;;16.40;;
32633;SDS011;19043;51.012;5.648;2023-11-21T09:13:16;54.35;;;17.80;;
32633;SDS011;19043;51.012;5.648;2023-11-21T09:15:41;52.28;;;15.98;;
32633;SDS011;19043;51.012;5.648;2023-11-21T09:18:07;55.90;;;18.23;;
32633;SDS011;19043;51.012;5.648;2023-11-21T09:20:32;42.75;;;15.05;;
32633;SDS011;19043;51.012;5.648;2023-11-21T09:22:57;41.90;;;15.43;;
32633;SDS011;19043;51.012;5.648;2023-11-21T09:25:23;51.63;;;16.47;;
32633;SDS011;19043;51.012;5.648;2023-11-21T09:27:48;48.77;;;15.00;;
32633;SDS011;19043;51.012;5.648;2023-11-21T09:30:13;47.53;;;16.38;;
32633;SDS011;19043;51.012;5.648;2023-11-21T09:32:39;51.55;;;15.63;;
32633;SDS011;19043;51.012;5.648;2023-11-21T09:35:05;48.72;;;16.38;;
32633;SDS011;19043;51.012;5.648;2023-11-21T09:37:33;56.00;;;17.80;;
32633;SDS011;19043;51.012;5.648;2023-11-21T09:39:58;50.53;;;17.02;;
32633;SDS011;19043;51.012;5.648;2023-11-21T09:42:25;47.03;;;16.17;;
32633;SDS011;19043;51.012;5.648;2023-11-21T09:45:00;52.80;;;17.38;;
32633;SDS011;19043;51.012;5.648;2023-11-21T09:47:29;53.38;;;17.73;;
32633;SDS011;19043;51.012;5.648;2023-11-21T09:49:54;54.55;;;16.27;;
32633;SDS011;19043;51.012;5.648;2023-11-21T09:52:25;54.67;;;16.63;;
32633;SDS011;19043;51.012;5.648;2023-11-21T09:54:50;52.60;;;17.23;;
32633;SDS011;19043;51.012;5.648;2023-11-21T09:57:17;60.65;;;18.90;;
32633;SDS011;19043;51.012;5.648;2023-11-21T09:59:43;55.45;;;18.60;;
32633;SDS011;19043;51.012;5.648;2023-11-21T10:02:10;53.85;;;17.33;;
32633;SDS011;19043;51.012;5.648;2023-11-21T10:04:38;54.85;;;18.27;;
32633;SDS011;19043;51.012;5.648;2023-11-21T10:07:03;51.20;;;16.83;;
32633;SDS011;19043;51.012;5.648;2023-11-21T10:09:33;56.15;;;16.58;;
32633;SDS011;19043;51.012;5.648;2023-11-21T10:11:59;50.22;;;16.88;;
32633;SDS011;19043;51.012;5.648;2023-11-21T10:14:25;56.88;;;16.92;;
32633;SDS011;19043;51.012;5.648;2023-11-21T10:16:54;52.08;;;17.23;;
32633;SDS011;19043;51.012;5.648;2023-11-21T10:19:19;59.20;;;18.52;;
32633;SDS011;19043;51.012;5.648;2023-11-21T10:21:47;52.58;;;17.08;;
32633;SDS011;19043;51.012;5.648;2023-11-21T10:24:12;60.88;;;18.00;;
32633;SDS011;19043;51.012;5.648;2023-11-21T10:26:37;44.20;;;16.15;;
32633;SDS011;19043;51.012;5.648;2023-11-21T10:29:03;43.10;;;15.73;;
32633;SDS011;19043;51.012;5.648;2023-11-21T10:31:32;47.17;;;16.58;;
32633;SDS011;19043;51.012;5.648;2023-11-21T10:34:13;46.53;;;16.15;;
32633;SDS011;19043;51.012;5.648;2023-11-21T10:36:39;43.45;;;15.27;;
32633;SDS011;19043;51.012;5.648;2023-11-21T10:39:04;39.95;;;15.27;;
32633;SDS011;19043;51.012;5.648;2023-11-21T10:41:29;38.17;;;14.70;;
32633;SDS011;19043;51.012;5.648;2023-11-21T10:43:55;36.40;;;16.07;;
32633;SDS011;19043;51.012;5.648;2023-11-21T10:46:21;42.83;;;14.15;;
32633;SDS011;19043;51.012;5.648;2023-11-21T10:48:51;42.92;;;14.93;;
32633;SDS011;19043;51.012;5.648;2023-11-21T10:51:17;31.80;;;13.82;;
32633;SDS011;19043;51.012;5.648;2023-11-21T10:53:44;39.20;;;14.23;;
32633;SDS011;19043;51.012;5.648;2023-11-21T10:56:10;36.13;;;14.30;;
32633;SDS011;19043;51.012;5.648;2023-11-21T10:58:42;38.75;;;14.98;;
32633;SDS011;19043;51.012;5.648;2023-11-21T11:01:07;36.70;;;13.73;;
32633;SDS011;19043;51.012;5.648;2023-11-21T11:03:34;35.30;;;12.98;;
32633;SDS011;19043;51.012;5.648;2023-11-21T11:06:01;37.35;;;14.02;;
32633;SDS011;19043;51.012;5.648;2023-11-21T11:08:27;34.40;;;14.50;;
32633;SDS011;19043;51.012;5.648;2023-11-21T11:10:52;29.10;;;13.38;;
32633;SDS011;19043;51.012;5.648;2023-11-21T11:13:18;40.70;;;14.23;;
32633;SDS011;19043;51.012;5.648;2023-11-21T11:15:43;32.22;;;14.15;;
32633;SDS011;19043;51.012;5.648;2023-11-21T11:18:12;39.13;;;14.45;;
32633;SDS011;19043;51.012;5.648;2023-11-21T11:20:38;43.00;;;16.15;;
32633;SDS011;19043;51.012;5.648;2023-11-21T11:31:27;38.60;;;14.52;;
32633;SDS011;19043;51.012;5.648;2023-11-21T11:36:42;40.75;;;15.35;;
32633;SDS011;19043;51.012;5.648;2023-11-21T11:41:54;38.03;;;15.85;;
32633;SDS011;19043;51.012;5.648;2023-11-21T11:44:53;38.45;;;14.15;;
32633;SDS011;19043;51.012;5.648;2023-11-21T11:47:15;43.58;;;13.65;;
32633;SDS011;19043;51.012;5.648;2023-11-21T11:50:00;33.60;;;15.00;;
32633;SDS011;19043;51.012;5.648;2023-11-21T11:54:51;26.80;;;12.13;;
32633;SDS011;19043;51.012;5.648;2023-11-21T11:57:18;39.20;;;14.25;;
32633;SDS011;19043;51.012;5.648;2023-11-21T12:02:30;33.63;;;12.32;;
32633;SDS011;19043;51.012;5.648;2023-11-21T12:04:55;30.30;;;12.13;;
32633;SDS011;19043;51.012;5.648;2023-11-21T12:07:21;31.27;;;13.38;;
32633;SDS011;19043;51.012;5.648;2023-11-21T12:09:47;25.95;;;12.38;;
32633;SDS011;19043;51.012;5.648;2023-11-21T12:12:13;33.60;;;13.53;;
32633;SDS011;19043;51.012;5.648;2023-11-21T12:14:39;26.13;;;11.63;;
32633;SDS011;19043;51.012;5.648;2023-11-21T12:17:04;24.90;;;12.52;;
32633;SDS011;19043;51.012;5.648;2023-11-21T12:19:29;26.17;;;12.70;;
32633;SDS011;19043;51.012;5.648;2023-11-21T12:21:55;25.98;;;11.57;;
32633;SDS011;19043;51.012;5.648;2023-11-21T12:24:20;29.83;;;12.68;;
32633;SDS011;19043;51.012;5.648;2023-11-21T12:26:46;21.10;;;10.48;;
32633;SDS011;19043;51.012;5.648;2023-11-21T12:29:11;26.08;;;11.35;;
32633;SDS011;19043;51.012;5.648;2023-11-21T12:31:36;21.13;;;10.07;;
32633;SDS011;19043;51.012;5.648;2023-11-21T12:34:01;17.30;;;9.20;;
32633;SDS011;19043;51.012;5.648;2023-11-21T12:36:27;19.40;;;9.65;;
32633;SDS011;19043;51.012;5.648;2023-11-21T12:38:55;20.75;;;10.07;;
32633;SDS011;19043;51.012;5.648;2023-11-21T12:41:20;16.92;;;9.20;;
32633;SDS011;19043;51.012;5.648;2023-11-21T12:43:46;16.92;;;9.02;;
32633;SDS011;19043;51.012;5.648;2023-11-21T12:46:12;16.23;;;9.57;;
32633;SDS011;19043;51.012;5.648;2023-11-21T12:48:43;19.80;;;10.27;;
32633;SDS011;19043;51.012;5.648;2023-11-21T12:51:09;18.00;;;9.90;;
32633;SDS011;19043;51.012;5.648;2023-11-21T12:53:34;18.45;;;11.38;;
32633;SDS011;19043;51.012;5.648;2023-11-21T12:56:12;23.25;;;12.32;;
32633;SDS011;19043;51.012;5.648;2023-11-21T12:58:38;17.98;;;9.52;;
32633;SDS011;19043;51.012;5.648;2023-11-21T13:01:07;20.27;;;10.68;;
32633;SDS011;19043;51.012;5.648;2023-11-21T13:03:39;15.68;;;10.48;;
32633;SDS011;19043;51.012;5.648;2023-11-21T13:06:05;24.05;;;11.35;;
32633;SDS011;19043;51.012;5.648;2023-11-21T13:08:32;18.52;;;12.18;;
32633;SDS011;19043;51.012;5.648;2023-11-21T13:10:58;25.50;;;12.60;;
32633;SDS011;19043;51.012;5.648;2023-11-21T13:13:24;17.42;;;11.13;;
32633;SDS011;19043;51.012;5.648;2023-11-21T13:15:59;19.08;;;12.13;;
32633;SDS011;19043;51.012;5.648;2023-11-21T13:18:29;20.83;;;11.45;;
32633;SDS011;19043;51.012;5.648;2023-11-21T13:20:56;20.85;;;11.80;;
32633;SDS011;19043;51.012;5.648;2023-11-21T13:23:22;19.25;;;11.02;;
32633;SDS011;19043;51.012;5.648;2023-11-21T13:25:48;20.05;;;10.25;;
32633;SDS011;19043;51.012;5.648;2023-11-21T13:28:14;16.02;;;9.38;;
32633;SDS011;19043;51.012;5.648;2023-11-21T13:30:40;16.42;;;10.18;;
32633;SDS011;19043;51.012;5.648;2023-11-21T13:33:06;20.88;;;11.43;;
32633;SDS011;19043;51.012;5.648;2023-11-21T13:35:39;17.38;;;11.27;;
32633;SDS011;19043;51.012;5.648;2023-11-21T13:38:09;21.58;;;12.05;;
32633;SDS011;19043;51.012;5.648;2023-11-21T13:40:35;23.85;;;12.98;;
32633;SDS011;19043;51.012;5.648;2023-11-21T13:43:07;22.35;;;12.85;;
32633;SDS011;19043;51.012;5.648;2023-11-21T13:45:41;22.60;;;13.27;;
32633;SDS011;19043;51.012;5.648;2023-11-21T13:48:07;27.00;;;13.13;;
32633;SDS011;19043;51.012;5.648;2023-11-21T13:50:45;23.98;;;12.80;;
32633;SDS011;19043;51.012;5.648;2023-11-21T13:53:20;26.27;;;13.32;;
32633;SDS011;19043;51.012;5.648;2023-11-21T13:55:51;22.30;;;12.98;;
32633;SDS011;19043;51.012;5.648;2023-11-21T13:58:19;25.85;;;12.23;;
32633;SDS011;19043;51.012;5.648;2023-11-21T14:00:48;23.50;;;12.20;;
32633;SDS011;19043;51.012;5.648;2023-11-21T14:03:21;20.98;;;11.90;;
32633;SDS011;19043;51.012;5.648;2023-11-21T14:05:49;18.40;;;11.57;;
32633;SDS011;19043;51.012;5.648;2023-11-21T14:08:21;17.55;;;11.80;;
32633;SDS011;19043;51.012;5.648;2023-11-21T14:10:48;19.13;;;10.70;;
32633;SDS011;19043;51.012;5.648;2023-11-21T14:13:20;19.75;;;11.50;;
32633;SDS011;19043;51.012;5.648;2023-11-21T14:15:48;27.77;;;12.30;;
32633;SDS011;19043;51.012;5.648;2023-11-21T14:18:16;19.30;;;12.05;;
32633;SDS011;19043;51.012;5.648;2023-11-21T14:20:42;24.52;;;11.38;;
32633;SDS011;19043;51.012;5.648;2023-11-21T14:23:08;20.20;;;10.85;;
32633;SDS011;19043;51.012;5.648;2023-11-21T14:25:34;20.13;;;11.65;;
32633;SDS011;19043;51.012;5.648;2023-11-21T14:27:59;19.25;;;11.60;;
32633;SDS011;19043;51.012;5.648;2023-11-21T14:30:25;20.85;;;11.60;;
32633;SDS011;19043;51.012;5.648;2023-11-21T14:32:51;20.00;;;11.82;;
32633;SDS011;19043;51.012;5.648;2023-11-21T14:35:16;23.85;;;12.10;;